sensor_id;sensor_type;location;lat;lon;timestamp;P1;durP1;ratioP1;P2;durP2;ratioP2
76348;SDS011;65172;46.764;15.406;2024-03-08T00:01:59;10.70;;;6.68;;
76348;SDS011;65172;46.764;15.406;2024-03-08T00:04:25;9.15;;;6.90;;
76348;SDS011;65172;46.764;15.406;2024-03-08T00:06:51;11.93;;;6.82;;
76348;SDS011;65172;46.764;15.406;2024-03-08T00:09:16;11.15;;;7.57;;
76348;SDS011;65172;46.764;15.406;2024-03-08T00:11:42;12.35;;;7.45;;
76348;SDS011;65172;46.764;15.406;2024-03-08T00:14:07;11.50;;;7.47;;
76348;SDS011;65172;46.764;15.406;2024-03-08T00:16:33;9.63;;;6.82;;
76348;SDS011;65172;46.764;15.406;2024-03-08T00:18:59;10.15;;;6.85;;
76348;SDS011;65172;46.764;15.406;2024-03-08T00:21:24;12.27;;;6.78;;
76348;SDS011;65172;46.764;15.406;2024-03-08T00:23:52;12.30;;;7.80;;
76348;SDS011;65172;46.764;15.406;2024-03-08T00:26:20;11.80;;;7.20;;
76348;SDS011;65172;46.764;15.406;2024-03-08T00:28:47;12.30;;;7.35;;
76348;SDS011;65172;46.764;15.406;2024-03-08T00:31:14;12.48;;;8.02;;
76348;SDS011;65172;46.764;15.406;2024-03-08T00:33:42;11.52;;;7.32;;
76348;SDS011;65172;46.764;15.406;2024-03-08T00:36:07;9.70;;;6.68;;
76348;SDS011;65172;46.764;15.406;2024-03-08T00:38:33;12.60;;;7.32;;
76348;SDS011;65172;46.764;15.406;2024-03-08T00:40:59;11.65;;;7.65;;
76348;SDS011;65172;46.764;15.406;2024-03-08T00:43:25;11.90;;;7.55;;
76348;SDS011;65172;46.764;15.406;2024-03-08T00:45:52;10.95;;;7.13;;
76348;SDS011;65172;46.764;15.406;2024-03-08T00:48:17;10.65;;;7.20;;
76348;SDS011;65172;46.764;15.406;2024-03-08T00:50:43;18.02;;;7.97;;
76348;SDS011;65172;46.764;15.406;2024-03-08T00:53:12;10.40;;;7.10;;
76348;SDS011;65172;46.764;15.406;2024-03-08T00:55:38;15.15;;;7.75;;
76348;SDS011;65172;46.764;15.406;2024-03-08T00:58:03;11.40;;;7.15;;
76348;SDS011;65172;46.764;15.406;2024-03-08T01:00:30;11.52;;;7.80;;
76348;SDS011;65172;46.764;15.406;2024-03-08T01:02:55;10.75;;;7.65;;
76348;SDS011;65172;46.764;15.406;2024-03-08T01:05:21;12.05;;;7.55;;
76348;SDS011;65172;46.764;15.406;2024-03-08T01:07:49;11.23;;;6.93;;
76348;SDS011;65172;46.764;15.406;2024-03-08T01:10:15;11.70;;;7.47;;
76348;SDS011;65172;46.764;15.406;2024-03-08T01:12:41;9.57;;;6.60;;
76348;SDS011;65172;46.764;15.406;2024-03-08T01:15:08;12.40;;;7.70;;
76348;SDS011;65172;46.764;15.406;2024-03-08T01:17:35;13.35;;;7.53;;
76348;SDS011;65172;46.764;15.406;2024-03-08T01:20:01;9.70;;;6.72;;
76348;SDS011;65172;46.764;15.406;2024-03-08T01:22:27;11.77;;;6.95;;
76348;SDS011;65172;46.764;15.406;2024-03-08T01:24:54;10.15;;;7.22;;
76348;SDS011;65172;46.764;15.406;2024-03-08T01:27:23;12.65;;;7.32;;
76348;SDS011;65172;46.764;15.406;2024-03-08T01:29:50;10.07;;;5.80;;
76348;SDS011;65172;46.764;15.406;2024-03-08T01:32:15;10.23;;;6.43;;
76348;SDS011;65172;46.764;15.406;2024-03-08T01:34:41;10.80;;;7.40;;
76348;SDS011;65172;46.764;15.406;2024-03-08T01:37:07;11.95;;;6.78;;
76348;SDS011;65172;46.764;15.406;2024-03-08T01:39:32;12.00;;;6.25;;
76348;SDS011;65172;46.764;15.406;2024-03-08T01:41:58;9.93;;;7.30;;
76348;SDS011;65172;46.764;15.406;2024-03-08T01:44:24;12.30;;;7.38;;
76348;SDS011;65172;46.764;15.406;2024-03-08T01:46:50;8.38;;;5.65;;
76348;SDS011;65172;46.764;15.406;2024-03-08T01:49:17;9.35;;;6.57;;
76348;SDS011;65172;46.764;15.406;2024-03-08T01:51:45;9.93;;;6.68;;
76348;SDS011;65172;46.764;15.406;2024-03-08T01:54:11;8.55;;;6.72;;
76348;SDS011;65172;46.764;15.406;2024-03-08T01:56:37;11.98;;;7.70;;
76348;SDS011;65172;46.764;15.406;2024-03-08T01:59:04;9.18;;;6.35;;
76348;SDS011;65172;46.764;15.406;2024-03-08T02:01:31;11.13;;;7.05;;
76348;SDS011;65172;46.764;15.406;2024-03-08T02:03:56;8.75;;;5.97;;
76348;SDS011;65172;46.764;15.406;2024-03-08T02:06:22;10.30;;;7.05;;
76348;SDS011;65172;46.764;15.406;2024-03-08T02:08:47;11.02;;;6.90;;
76348;SDS011;65172;46.764;15.406;2024-03-08T02:11:13;11.43;;;7.60;;
76348;SDS011;65172;46.764;15.406;2024-03-08T02:13:39;8.98;;;6.75;;
76348;SDS011;65172;46.764;15.406;2024-03-08T02:16:04;13.75;;;7.50;;
76348;SDS011;65172;46.764;15.406;2024-03-08T02:18:33;10.45;;;6.82;;
76348;SDS011;65172;46.764;15.406;2024-03-08T02:21:00;10.18;;;7.35;;
76348;SDS011;65172;46.764;15.406;2024-03-08T02:23:26;10.80;;;7.20;;
76348;SDS011;65172;46.764;15.406;2024-03-08T02:25:52;9.75;;;6.22;;
76348;SDS011;65172;46.764;15.406;2024-03-08T02:28:18;9.95;;;6.93;;
76348;SDS011;65172;46.764;15.406;2024-03-08T02:30:45;11.30;;;7.35;;
76348;SDS011;65172;46.764;15.406;2024-03-08T02:33:14;11.20;;;6.80;;
76348;SDS011;65172;46.764;15.406;2024-03-08T02:35:43;9.13;;;6.65;;
76348;SDS011;65172;46.764;15.406;2024-03-08T02:38:12;9.35;;;6.50;;
76348;SDS011;65172;46.764;15.406;2024-03-08T02:40:41;10.10;;;6.68;;
76348;SDS011;65172;46.764;15.406;2024-03-08T02:43:08;9.65;;;6.50;;
76348;SDS011;65172;46.764;15.406;2024-03-08T02:45:36;10.82;;;7.10;;
76348;SDS011;65172;46.764;15.406;2024-03-08T02:48:02;9.27;;;6.53;;
76348;SDS011;65172;46.764;15.406;2024-03-08T02:50:28;14.27;;;7.10;;
76348;SDS011;65172;46.764;15.406;2024-03-08T02:52:53;10.52;;;6.68;;
76348;SDS011;65172;46.764;15.406;2024-03-08T02:55:19;9.20;;;6.90;;
76348;SDS011;65172;46.764;15.406;2024-03-08T02:57:45;14.38;;;7.07;;
76348;SDS011;65172;46.764;15.406;2024-03-08T03:00:14;10.25;;;7.05;;
76348;SDS011;65172;46.764;15.406;2024-03-08T03:02:40;10.60;;;7.18;;
76348;SDS011;65172;46.764;15.406;2024-03-08T03:05:07;9.70;;;6.72;;
76348;SDS011;65172;46.764;15.406;2024-03-08T03:07:35;10.20;;;7.60;;
76348;SDS011;65172;46.764;15.406;2024-03-08T03:10:01;11.27;;;8.27;;
76348;SDS011;65172;46.764;15.406;2024-03-08T03:12:30;12.63;;;8.00;;
76348;SDS011;65172;46.764;15.406;2024-03-08T03:14:56;12.15;;;7.93;;
76348;SDS011;65172;46.764;15.406;2024-03-08T03:17:25;11.57;;;8.07;;
76348;SDS011;65172;46.764;15.406;2024-03-08T03:19:51;16.13;;;8.40;;
76348;SDS011;65172;46.764;15.406;2024-03-08T03:22:17;14.68;;;8.18;;
76348;SDS011;65172;46.764;15.406;2024-03-08T03:24:44;12.38;;;8.68;;
76348;SDS011;65172;46.764;15.406;2024-03-08T03:27:11;12.27;;;8.27;;
76348;SDS011;65172;46.764;15.406;2024-03-08T03:29:40;14.02;;;9.20;;
76348;SDS011;65172;46.764;15.406;2024-03-08T03:32:12;13.27;;;9.27;;
76348;SDS011;65172;46.764;15.406;2024-03-08T03:34:38;14.90;;;9.73;;
76348;SDS011;65172;46.764;15.406;2024-03-08T03:37:04;16.20;;;10.02;;
76348;SDS011;65172;46.764;15.406;2024-03-08T03:39:32;27.23;;;10.50;;
76348;SDS011;65172;46.764;15.406;2024-03-08T03:41:59;186.60;;;12.25;;
76348;SDS011;65172;46.764;15.406;2024-03-08T03:44:28;13.65;;;9.68;;
76348;SDS011;65172;46.764;15.406;2024-03-08T03:46:54;62.65;;;10.85;;
76348;SDS011;65172;46.764;15.406;2024-03-08T03:49:19;75.18;;;9.88;;
76348;SDS011;65172;46.764;15.406;2024-03-08T03:51:45;15.77;;;8.60;;
76348;SDS011;65172;46.764;15.406;2024-03-08T03:54:11;11.90;;;8.45;;
76348;SDS011;65172;46.764;15.406;2024-03-08T03:56:37;16.88;;;9.73;;
76348;SDS011;65172;46.764;15.406;2024-03-08T03:59:05;18.23;;;10.63;;
76348;SDS011;65172;46.764;15.406;2024-03-08T04:01:31;16.98;;;10.63;;
76348;SDS011;65172;46.764;15.406;2024-03-08T04:03:57;13.63;;;8.50;;
76348;SDS011;65172;46.764;15.406;2024-03-08T04:06:23;14.23;;;9.10;;
76348;SDS011;65172;46.764;15.406;2024-03-08T04:08:49;17.02;;;11.23;;
76348;SDS011;65172;46.764;15.406;2024-03-08T04:11:14;16.88;;;10.88;;
76348;SDS011;65172;46.764;15.406;2024-03-08T04:13:42;16.00;;;10.52;;
76348;SDS011;65172;46.764;15.406;2024-03-08T04:16:08;15.23;;;10.50;;
76348;SDS011;65172;46.764;15.406;2024-03-08T04:18:34;17.08;;;10.85;;
76348;SDS011;65172;46.764;15.406;2024-03-08T04:21:01;16.45;;;10.43;;
76348;SDS011;65172;46.764;15.406;2024-03-08T04:23:27;18.30;;;10.50;;
76348;SDS011;65172;46.764;15.406;2024-03-08T04:25:53;15.65;;;10.73;;
76348;SDS011;65172;46.764;15.406;2024-03-08T04:28:19;18.15;;;12.25;;
76348;SDS011;65172;46.764;15.406;2024-03-08T04:30:45;18.38;;;11.93;;
76348;SDS011;65172;46.764;15.406;2024-03-08T04:33:11;17.02;;;11.00;;
76348;SDS011;65172;46.764;15.406;2024-03-08T04:35:36;18.23;;;11.73;;
76348;SDS011;65172;46.764;15.406;2024-03-08T04:38:02;20.70;;;12.55;;
76348;SDS011;65172;46.764;15.406;2024-03-08T04:40:30;21.40;;;12.55;;
76348;SDS011;65172;46.764;15.406;2024-03-08T04:42:56;20.52;;;12.18;;
76348;SDS011;65172;46.764;15.406;2024-03-08T04:45:23;19.40;;;11.75;;
76348;SDS011;65172;46.764;15.406;2024-03-08T04:47:51;20.23;;;12.30;;
76348;SDS011;65172;46.764;15.406;2024-03-08T04:50:17;22.17;;;12.63;;
76348;SDS011;65172;46.764;15.406;2024-03-08T04:52:43;21.00;;;12.68;;
76348;SDS011;65172;46.764;15.406;2024-03-08T04:55:09;787.70;;;28.23;;
76348;SDS011;65172;46.764;15.406;2024-03-08T04:57:35;606.17;;;22.48;;
76348;SDS011;65172;46.764;15.406;2024-03-08T05:00:02;1360.13;;;49.25;;
76348;SDS011;65172;46.764;15.406;2024-03-08T05:02:29;283.75;;;14.43;;
76348;SDS011;65172;46.764;15.406;2024-03-08T05:04:55;19.65;;;11.85;;
76348;SDS011;65172;46.764;15.406;2024-03-08T05:07:20;81.15;;;10.63;;
76348;SDS011;65172;46.764;15.406;2024-03-08T05:09:46;249.88;;;11.20;;
76348;SDS011;65172;46.764;15.406;2024-03-08T05:12:16;857.10;;;29.70;;
76348;SDS011;65172;46.764;15.406;2024-03-08T05:14:44;912.65;;;35.53;;
76348;SDS011;65172;46.764;15.406;2024-03-08T05:17:15;607.72;;;24.60;;
76348;SDS011;65172;46.764;15.406;2024-03-08T05:19:41;685.63;;;25.40;;
76348;SDS011;65172;46.764;15.406;2024-03-08T05:22:07;1348.03;;;47.60;;
76348;SDS011;65172;46.764;15.406;2024-03-08T05:24:33;914.97;;;32.15;;
76348;SDS011;65172;46.764;15.406;2024-03-08T05:26:59;831.70;;;31.98;;
76348;SDS011;65172;46.764;15.406;2024-03-08T05:29:25;638.00;;;21.88;;
76348;SDS011;65172;46.764;15.406;2024-03-08T05:31:51;616.15;;;23.67;;
76348;SDS011;65172;46.764;15.406;2024-03-08T05:34:17;1137.75;;;38.38;;
76348;SDS011;65172;46.764;15.406;2024-03-08T05:36:44;610.35;;;27.00;;
76348;SDS011;65172;46.764;15.406;2024-03-08T05:39:12;1061.57;;;35.72;;
76348;SDS011;65172;46.764;15.406;2024-03-08T05:41:38;1059.05;;;35.60;;
76348;SDS011;65172;46.764;15.406;2024-03-08T05:44:07;752.47;;;29.27;;
76348;SDS011;65172;46.764;15.406;2024-03-08T05:46:33;118.20;;;12.00;;
76348;SDS011;65172;46.764;15.406;2024-03-08T05:49:01;695.90;;;24.05;;
76348;SDS011;65172;46.764;15.406;2024-03-08T05:51:31;361.58;;;18.33;;
76348;SDS011;65172;46.764;15.406;2024-03-08T05:54:02;106.10;;;11.25;;
76348;SDS011;65172;46.764;15.406;2024-03-08T05:56:30;623.78;;;22.95;;
76348;SDS011;65172;46.764;15.406;2024-03-08T05:58:56;713.78;;;27.42;;
76348;SDS011;65172;46.764;15.406;2024-03-08T06:01:23;888.33;;;33.25;;
76348;SDS011;65172;46.764;15.406;2024-03-08T06:03:52;1059.25;;;33.70;;
76348;SDS011;65172;46.764;15.406;2024-03-08T06:06:20;879.83;;;29.77;;
76348;SDS011;65172;46.764;15.406;2024-03-08T06:08:47;309.33;;;13.75;;
76348;SDS011;65172;46.764;15.406;2024-03-08T06:11:14;472.65;;;17.77;;
76348;SDS011;65172;46.764;15.406;2024-03-08T06:13:40;749.67;;;28.45;;
76348;SDS011;65172;46.764;15.406;2024-03-08T06:16:06;421.77;;;17.48;;
76348;SDS011;65172;46.764;15.406;2024-03-08T06:18:36;426.60;;;17.95;;
76348;SDS011;65172;46.764;15.406;2024-03-08T06:21:05;369.80;;;16.45;;
76348;SDS011;65172;46.764;15.406;2024-03-08T06:23:33;334.88;;;15.38;;
76348;SDS011;65172;46.764;15.406;2024-03-08T06:26:03;27.50;;;8.90;;
76348;SDS011;65172;46.764;15.406;2024-03-08T06:28:29;597.50;;;23.75;;
76348;SDS011;65172;46.764;15.406;2024-03-08T06:30:55;355.20;;;18.70;;
76348;SDS011;65172;46.764;15.406;2024-03-08T06:33:20;389.10;;;20.45;;
76348;SDS011;65172;46.764;15.406;2024-03-08T06:35:46;413.10;;;19.10;;
76348;SDS011;65172;46.764;15.406;2024-03-08T06:38:11;533.60;;;22.52;;
76348;SDS011;65172;46.764;15.406;2024-03-08T06:40:37;272.90;;;14.18;;
76348;SDS011;65172;46.764;15.406;2024-03-08T06:43:02;412.23;;;18.25;;
76348;SDS011;65172;46.764;15.406;2024-03-08T06:45:31;404.27;;;22.02;;
76348;SDS011;65172;46.764;15.406;2024-03-08T06:47:57;355.80;;;18.05;;
76348;SDS011;65172;46.764;15.406;2024-03-08T06:50:22;696.83;;;24.95;;
76348;SDS011;65172;46.764;15.406;2024-03-08T06:52:48;510.23;;;21.13;;
76348;SDS011;65172;46.764;15.406;2024-03-08T06:55:19;312.77;;;15.85;;
76348;SDS011;65172;46.764;15.406;2024-03-08T06:57:45;401.38;;;17.73;;
76348;SDS011;65172;46.764;15.406;2024-03-08T07:00:10;480.50;;;19.75;;
76348;SDS011;65172;46.764;15.406;2024-03-08T07:02:40;1030.30;;;37.92;;
76348;SDS011;65172;46.764;15.406;2024-03-08T07:05:05;590.83;;;25.65;;
76348;SDS011;65172;46.764;15.406;2024-03-08T07:07:35;619.15;;;25.80;;
76348;SDS011;65172;46.764;15.406;2024-03-08T07:10:01;689.10;;;28.63;;
76348;SDS011;65172;46.764;15.406;2024-03-08T07:12:26;144.63;;;12.55;;
76348;SDS011;65172;46.764;15.406;2024-03-08T07:14:52;488.63;;;20.52;;
76348;SDS011;65172;46.764;15.406;2024-03-08T07:17:18;713.70;;;28.40;;
76348;SDS011;65172;46.764;15.406;2024-03-08T07:19:44;445.27;;;20.23;;
76348;SDS011;65172;46.764;15.406;2024-03-08T07:22:10;654.60;;;25.95;;
76348;SDS011;65172;46.764;15.406;2024-03-08T07:24:36;1064.38;;;39.30;;
76348;SDS011;65172;46.764;15.406;2024-03-08T07:27:02;214.05;;;17.33;;
76348;SDS011;65172;46.764;15.406;2024-03-08T07:29:27;756.60;;;31.45;;
76348;SDS011;65172;46.764;15.406;2024-03-08T07:31:53;294.40;;;17.58;;
76348;SDS011;65172;46.764;15.406;2024-03-08T07:34:46;542.92;;;26.90;;
76348;SDS011;65172;46.764;15.406;2024-03-08T07:37:17;1063.68;;;39.85;;
76348;SDS011;65172;46.764;15.406;2024-03-08T07:39:44;721.60;;;28.88;;
76348;SDS011;65172;46.764;15.406;2024-03-08T07:42:09;352.70;;;21.17;;
76348;SDS011;65172;46.764;15.406;2024-03-08T07:44:37;131.00;;;14.45;;
76348;SDS011;65172;46.764;15.406;2024-03-08T07:47:03;471.77;;;24.20;;
76348;SDS011;65172;46.764;15.406;2024-03-08T07:49:29;231.38;;;17.50;;
76348;SDS011;65172;46.764;15.406;2024-03-08T07:51:55;78.30;;;12.88;;
76348;SDS011;65172;46.764;15.406;2024-03-08T07:54:21;124.57;;;15.27;;
76348;SDS011;65172;46.764;15.406;2024-03-08T07:56:47;195.95;;;16.42;;
76348;SDS011;65172;46.764;15.406;2024-03-08T07:59:12;206.48;;;16.70;;
76348;SDS011;65172;46.764;15.406;2024-03-08T08:01:38;166.63;;;15.88;;
76348;SDS011;65172;46.764;15.406;2024-03-08T08:04:03;23.50;;;12.20;;
76348;SDS011;65172;46.764;15.406;2024-03-08T08:06:30;25.17;;;12.77;;
76348;SDS011;65172;46.764;15.406;2024-03-08T08:09:00;42.40;;;12.93;;
76348;SDS011;65172;46.764;15.406;2024-03-08T08:11:26;18.35;;;12.52;;
76348;SDS011;65172;46.764;15.406;2024-03-08T08:13:53;17.38;;;11.50;;
76348;SDS011;65172;46.764;15.406;2024-03-08T08:16:20;19.73;;;12.43;;
76348;SDS011;65172;46.764;15.406;2024-03-08T08:18:47;83.13;;;12.88;;
76348;SDS011;65172;46.764;15.406;2024-03-08T08:21:13;20.90;;;13.00;;
76348;SDS011;65172;46.764;15.406;2024-03-08T08:23:39;22.00;;;13.57;;
76348;SDS011;65172;46.764;15.406;2024-03-08T08:26:05;51.47;;;13.38;;
76348;SDS011;65172;46.764;15.406;2024-03-08T08:28:31;27.38;;;14.30;;
76348;SDS011;65172;46.764;15.406;2024-03-08T08:30:56;23.88;;;14.68;;
76348;SDS011;65172;46.764;15.406;2024-03-08T08:33:22;20.23;;;12.32;;
76348;SDS011;65172;46.764;15.406;2024-03-08T08:35:47;20.20;;;12.63;;
76348;SDS011;65172;46.764;15.406;2024-03-08T08:38:13;21.52;;;13.38;;
76348;SDS011;65172;46.764;15.406;2024-03-08T08:40:38;28.48;;;15.85;;
76348;SDS011;65172;46.764;15.406;2024-03-08T08:43:04;19.40;;;11.95;;
76348;SDS011;65172;46.764;15.406;2024-03-08T08:45:30;105.13;;;45.25;;
76348;SDS011;65172;46.764;15.406;2024-03-08T08:47:56;23.15;;;13.88;;
76348;SDS011;65172;46.764;15.406;2024-03-08T08:50:22;18.73;;;12.73;;
76348;SDS011;65172;46.764;15.406;2024-03-08T08:52:52;60.05;;;29.77;;
76348;SDS011;65172;46.764;15.406;2024-03-08T08:55:18;22.85;;;13.35;;
76348;SDS011;65172;46.764;15.406;2024-03-08T08:57:46;20.83;;;13.30;;
76348;SDS011;65172;46.764;15.406;2024-03-08T09:00:13;22.92;;;13.18;;
76348;SDS011;65172;46.764;15.406;2024-03-08T09:02:40;38.45;;;22.15;;
76348;SDS011;65172;46.764;15.406;2024-03-08T09:05:06;25.08;;;13.95;;
76348;SDS011;65172;46.764;15.406;2024-03-08T09:07:33;19.88;;;13.48;;
76348;SDS011;65172;46.764;15.406;2024-03-08T09:09:59;19.40;;;12.70;;
76348;SDS011;65172;46.764;15.406;2024-03-08T09:12:25;22.25;;;13.77;;
76348;SDS011;65172;46.764;15.406;2024-03-08T09:14:51;24.05;;;14.45;;
76348;SDS011;65172;46.764;15.406;2024-03-08T09:17:17;21.15;;;13.95;;
76348;SDS011;65172;46.764;15.406;2024-03-08T09:19:48;24.80;;;14.75;;
76348;SDS011;65172;46.764;15.406;2024-03-08T09:22:14;24.00;;;14.98;;
76348;SDS011;65172;46.764;15.406;2024-03-08T09:24:40;24.23;;;14.18;;
76348;SDS011;65172;46.764;15.406;2024-03-08T09:27:06;21.17;;;13.43;;
76348;SDS011;65172;46.764;15.406;2024-03-08T09:29:31;22.10;;;14.70;;
76348;SDS011;65172;46.764;15.406;2024-03-08T09:31:57;21.02;;;13.90;;
76348;SDS011;65172;46.764;15.406;2024-03-08T09:34:22;22.90;;;14.25;;
76348;SDS011;65172;46.764;15.406;2024-03-08T09:36:48;23.60;;;14.35;;
76348;SDS011;65172;46.764;15.406;2024-03-08T09:39:15;23.25;;;15.18;;
76348;SDS011;65172;46.764;15.406;2024-03-08T09:41:42;23.30;;;14.95;;
76348;SDS011;65172;46.764;15.406;2024-03-08T09:44:09;28.75;;;18.58;;
76348;SDS011;65172;46.764;15.406;2024-03-08T09:46:34;22.65;;;14.57;;
76348;SDS011;65172;46.764;15.406;2024-03-08T09:49:00;21.63;;;14.88;;
76348;SDS011;65172;46.764;15.406;2024-03-08T09:51:29;22.30;;;12.73;;
76348;SDS011;65172;46.764;15.406;2024-03-08T09:53:56;21.95;;;14.93;;
76348;SDS011;65172;46.764;15.406;2024-03-08T09:56:23;20.63;;;13.60;;
76348;SDS011;65172;46.764;15.406;2024-03-08T09:58:48;20.73;;;13.18;;
76348;SDS011;65172;46.764;15.406;2024-03-08T10:01:32;17.10;;;11.20;;
76348;SDS011;65172;46.764;15.406;2024-03-08T10:03:58;20.52;;;12.15;;
76348;SDS011;65172;46.764;15.406;2024-03-08T10:06:24;19.83;;;13.15;;
76348;SDS011;65172;46.764;15.406;2024-03-08T10:08:50;23.63;;;14.07;;
76348;SDS011;65172;46.764;15.406;2024-03-08T10:11:31;21.70;;;12.90;;
76348;SDS011;65172;46.764;15.406;2024-03-08T10:13:56;19.42;;;13.35;;
76348;SDS011;65172;46.764;15.406;2024-03-08T10:16:22;17.70;;;11.88;;
76348;SDS011;65172;46.764;15.406;2024-03-08T10:18:49;19.15;;;12.98;;
76348;SDS011;65172;46.764;15.406;2024-03-08T10:21:14;18.40;;;12.02;;
76348;SDS011;65172;46.764;15.406;2024-03-08T10:23:42;16.80;;;11.45;;
76348;SDS011;65172;46.764;15.406;2024-03-08T10:28:50;19.73;;;12.82;;
76348;SDS011;65172;46.764;15.406;2024-03-08T10:31:17;18.52;;;13.43;;
76348;SDS011;65172;46.764;15.406;2024-03-08T10:33:43;21.15;;;13.32;;
76348;SDS011;65172;46.764;15.406;2024-03-08T10:36:09;19.98;;;13.32;;
76348;SDS011;65172;46.764;15.406;2024-03-08T10:38:37;20.60;;;14.38;;
76348;SDS011;65172;46.764;15.406;2024-03-08T10:41:05;18.40;;;12.27;;
76348;SDS011;65172;46.764;15.406;2024-03-08T10:43:32;18.20;;;11.90;;
76348;SDS011;65172;46.764;15.406;2024-03-08T10:48:41;16.73;;;11.68;;
76348;SDS011;65172;46.764;15.406;2024-03-08T10:51:09;16.30;;;11.55;;
76348;SDS011;65172;46.764;15.406;2024-03-08T10:53:39;17.17;;;12.18;;
76348;SDS011;65172;46.764;15.406;2024-03-08T10:56:06;18.20;;;11.75;;
76348;SDS011;65172;46.764;15.406;2024-03-08T10:58:34;14.63;;;10.57;;
76348;SDS011;65172;46.764;15.406;2024-03-08T11:01:00;17.25;;;11.45;;
76348;SDS011;65172;46.764;15.406;2024-03-08T11:06:17;14.18;;;9.90;;
76348;SDS011;65172;46.764;15.406;2024-03-08T11:08:46;17.40;;;12.00;;
76348;SDS011;65172;46.764;15.406;2024-03-08T11:11:25;14.30;;;10.20;;
76348;SDS011;65172;46.764;15.406;2024-03-08T11:13:57;15.85;;;10.85;;
76348;SDS011;65172;46.764;15.406;2024-03-08T11:19:06;20.15;;;11.48;;
76348;SDS011;65172;46.764;15.406;2024-03-08T11:21:38;16.02;;;10.57;;
76348;SDS011;65172;46.764;15.406;2024-03-08T11:24:08;16.98;;;11.40;;
76348;SDS011;65172;46.764;15.406;2024-03-08T11:26:36;17.92;;;11.50;;
76348;SDS011;65172;46.764;15.406;2024-03-08T11:32:09;19.02;;;11.15;;
76348;SDS011;65172;46.764;15.406;2024-03-08T11:34:40;18.13;;;12.50;;
76348;SDS011;65172;46.764;15.406;2024-03-08T11:37:12;17.27;;;12.30;;
76348;SDS011;65172;46.764;15.406;2024-03-08T11:39:39;16.35;;;12.07;;
76348;SDS011;65172;46.764;15.406;2024-03-08T11:42:05;17.60;;;11.98;;
76348;SDS011;65172;46.764;15.406;2024-03-08T11:44:31;20.98;;;14.18;;
76348;SDS011;65172;46.764;15.406;2024-03-08T11:46:57;20.00;;;12.93;;
76348;SDS011;65172;46.764;15.406;2024-03-08T11:49:23;17.20;;;12.52;;
76348;SDS011;65172;46.764;15.406;2024-03-08T11:51:52;17.77;;;12.27;;
76348;SDS011;65172;46.764;15.406;2024-03-08T11:54:18;17.60;;;12.20;;
76348;SDS011;65172;46.764;15.406;2024-03-08T11:56:44;18.38;;;13.00;;
76348;SDS011;65172;46.764;15.406;2024-03-08T11:59:12;17.58;;;11.90;;
76348;SDS011;65172;46.764;15.406;2024-03-08T12:01:38;18.83;;;12.45;;
76348;SDS011;65172;46.764;15.406;2024-03-08T12:04:04;19.70;;;13.80;;
76348;SDS011;65172;46.764;15.406;2024-03-08T12:06:37;21.45;;;13.73;;
76348;SDS011;65172;46.764;15.406;2024-03-08T12:09:12;27.35;;;14.15;;
76348;SDS011;65172;46.764;15.406;2024-03-08T12:11:38;22.52;;;14.10;;
76348;SDS011;65172;46.764;15.406;2024-03-08T12:14:04;19.90;;;12.65;;
76348;SDS011;65172;46.764;15.406;2024-03-08T12:16:31;23.55;;;13.48;;
76348;SDS011;65172;46.764;15.406;2024-03-08T12:19:00;18.65;;;12.43;;
76348;SDS011;65172;46.764;15.406;2024-03-08T12:21:26;25.60;;;15.63;;
76348;SDS011;65172;46.764;15.406;2024-03-08T12:24:07;21.30;;;13.55;;
76348;SDS011;65172;46.764;15.406;2024-03-08T12:26:35;19.42;;;13.88;;
76348;SDS011;65172;46.764;15.406;2024-03-08T12:31:46;19.52;;;13.00;;
76348;SDS011;65172;46.764;15.406;2024-03-08T12:34:12;22.48;;;14.63;;
76348;SDS011;65172;46.764;15.406;2024-03-08T12:36:44;21.15;;;13.63;;
76348;SDS011;65172;46.764;15.406;2024-03-08T12:39:12;20.55;;;13.52;;
76348;SDS011;65172;46.764;15.406;2024-03-08T12:41:41;20.58;;;14.40;;
76348;SDS011;65172;46.764;15.406;2024-03-08T12:44:06;20.30;;;13.60;;
76348;SDS011;65172;46.764;15.406;2024-03-08T12:46:37;22.33;;;13.70;;
76348;SDS011;65172;46.764;15.406;2024-03-08T12:49:08;21.65;;;14.23;;
76348;SDS011;65172;46.764;15.406;2024-03-08T12:51:34;21.40;;;14.35;;
76348;SDS011;65172;46.764;15.406;2024-03-08T12:54:01;22.73;;;13.95;;
76348;SDS011;65172;46.764;15.406;2024-03-08T12:56:30;24.20;;;16.00;;
76348;SDS011;65172;46.764;15.406;2024-03-08T12:58:57;22.15;;;14.55;;
76348;SDS011;65172;46.764;15.406;2024-03-08T13:01:23;24.17;;;14.63;;
76348;SDS011;65172;46.764;15.406;2024-03-08T13:03:49;24.58;;;15.27;;
76348;SDS011;65172;46.764;15.406;2024-03-08T13:06:17;21.48;;;14.07;;
76348;SDS011;65172;46.764;15.406;2024-03-08T13:08:44;20.17;;;12.73;;
76348;SDS011;65172;46.764;15.406;2024-03-08T13:11:10;21.33;;;14.70;;
76348;SDS011;65172;46.764;15.406;2024-03-08T13:13:42;21.38;;;14.77;;
76348;SDS011;65172;46.764;15.406;2024-03-08T13:16:09;20.70;;;14.18;;
76348;SDS011;65172;46.764;15.406;2024-03-08T13:18:36;21.33;;;15.10;;
76348;SDS011;65172;46.764;15.406;2024-03-08T13:21:02;27.55;;;17.13;;
76348;SDS011;65172;46.764;15.406;2024-03-08T13:23:31;22.90;;;14.10;;
76348;SDS011;65172;46.764;15.406;2024-03-08T13:25:57;22.98;;;14.40;;
76348;SDS011;65172;46.764;15.406;2024-03-08T13:28:23;24.15;;;15.45;;
76348;SDS011;65172;46.764;15.406;2024-03-08T13:30:53;21.50;;;14.50;;
76348;SDS011;65172;46.764;15.406;2024-03-08T13:33:20;24.08;;;14.82;;
76348;SDS011;65172;46.764;15.406;2024-03-08T13:35:45;24.00;;;15.63;;
76348;SDS011;65172;46.764;15.406;2024-03-08T13:38:11;24.25;;;15.63;;
76348;SDS011;65172;46.764;15.406;2024-03-08T13:40:38;22.00;;;14.80;;
76348;SDS011;65172;46.764;15.406;2024-03-08T13:43:05;24.38;;;16.02;;
76348;SDS011;65172;46.764;15.406;2024-03-08T13:45:33;26.60;;;15.82;;
76348;SDS011;65172;46.764;15.406;2024-03-08T13:48:02;23.85;;;15.50;;
76348;SDS011;65172;46.764;15.406;2024-03-08T13:50:29;24.88;;;16.65;;
76348;SDS011;65172;46.764;15.406;2024-03-08T13:52:55;26.00;;;16.13;;
76348;SDS011;65172;46.764;15.406;2024-03-08T13:55:21;33.83;;;21.52;;
76348;SDS011;65172;46.764;15.406;2024-03-08T13:57:47;26.52;;;15.82;;
76348;SDS011;65172;46.764;15.406;2024-03-08T14:00:14;26.55;;;16.70;;
76348;SDS011;65172;46.764;15.406;2024-03-08T14:02:40;28.40;;;17.70;;
76348;SDS011;65172;46.764;15.406;2024-03-08T14:05:09;28.98;;;17.17;;
76348;SDS011;65172;46.764;15.406;2024-03-08T14:07:36;29.85;;;17.30;;
76348;SDS011;65172;46.764;15.406;2024-03-08T14:10:01;26.40;;;15.73;;
76348;SDS011;65172;46.764;15.406;2024-03-08T14:12:27;35.35;;;17.08;;
76348;SDS011;65172;46.764;15.406;2024-03-08T14:14:53;31.42;;;17.27;;
76348;SDS011;65172;46.764;15.406;2024-03-08T14:17:18;27.25;;;17.95;;
76348;SDS011;65172;46.764;15.406;2024-03-08T14:19:44;26.50;;;17.48;;
76348;SDS011;65172;46.764;15.406;2024-03-08T14:22:09;29.60;;;17.65;;
76348;SDS011;65172;46.764;15.406;2024-03-08T14:24:39;27.70;;;16.90;;
76348;SDS011;65172;46.764;15.406;2024-03-08T14:27:07;30.63;;;18.48;;